sensor_id;sensor_type;location;lat;lon;timestamp;P1;durP1;ratioP1;P2;durP2;ratioP2
37383;SDS011;23258;49.718;11.082;2022-10-31T00:02:06;9.68;;;5.88;;
37383;SDS011;23258;49.718;11.082;2022-10-31T00:04:37;6.05;;;4.88;;
37383;SDS011;23258;49.718;11.082;2022-10-31T00:07:06;6.80;;;5.20;;
37383;SDS011;23258;49.718;11.082;2022-10-31T00:09:36;4.70;;;4.28;;
37383;SDS011;23258;49.718;11.082;2022-10-31T00:12:05;7.63;;;4.45;;
37383;SDS011;23258;49.718;11.082;2022-10-31T00:14:35;4.70;;;4.30;;
37383;SDS011;23258;49.718;11.082;2022-10-31T00:17:07;5.60;;;4.90;;
37383;SDS011;23258;49.718;11.082;2022-10-31T00:19:36;5.68;;;4.38;;
37383;SDS011;23258;49.718;11.082;2022-10-31T00:22:06;7.47;;;4.93;;
37383;SDS011;23258;49.718;11.082;2022-10-31T00:24:35;5.28;;;4.30;;
37383;SDS011;23258;49.718;11.082;2022-10-31T00:27:05;4.82;;;4.28;;
37383;SDS011;23258;49.718;11.082;2022-10-31T00:29:34;7.32;;;4.65;;
37383;SDS011;23258;49.718;11.082;2022-10-31T00:32:04;6.00;;;4.75;;
37383;SDS011;23258;49.718;11.082;2022-10-31T00:34:36;9.13;;;4.75;;
37383;SDS011;23258;49.718;11.082;2022-10-31T00:37:05;6.68;;;4.57;;
37383;SDS011;23258;49.718;11.082;2022-10-31T00:39:35;4.25;;;3.85;;
37383;SDS011;23258;49.718;11.082;2022-10-31T00:42:05;6.18;;;4.43;;
37383;SDS011;23258;49.718;11.082;2022-10-31T00:44:34;5.93;;;4.53;;
37383;SDS011;23258;49.718;11.082;2022-10-31T00:47:04;4.85;;;4.28;;
37383;SDS011;23258;49.718;11.082;2022-10-31T00:49:36;6.40;;;4.53;;
37383;SDS011;23258;49.718;11.082;2022-10-31T00:52:06;4.70;;;4.30;;
37383;SDS011;23258;49.718;11.082;2022-10-31T00:54:36;6.57;;;4.70;;
37383;SDS011;23258;49.718;11.082;2022-10-31T00:57:05;6.88;;;4.43;;
37383;SDS011;23258;49.718;11.082;2022-10-31T00:59:35;6.32;;;4.45;;
37383;SDS011;23258;49.718;11.082;2022-10-31T01:02:05;6.30;;;4.28;;
37383;SDS011;23258;49.718;11.082;2022-10-31T01:04:37;5.30;;;4.80;;
37383;SDS011;23258;49.718;11.082;2022-10-31T01:07:06;7.10;;;6.05;;
37383;SDS011;23258;49.718;11.082;2022-10-31T01:09:37;11.82;;;6.28;;
37383;SDS011;23258;49.718;11.082;2022-10-31T01:12:07;6.28;;;5.10;;
37383;SDS011;23258;49.718;11.082;2022-10-31T01:14:38;7.43;;;5.32;;
37383;SDS011;23258;49.718;11.082;2022-10-31T01:17:08;11.48;;;5.70;;
37383;SDS011;23258;49.718;11.082;2022-10-31T01:19:40;6.70;;;5.22;;
37383;SDS011;23258;49.718;11.082;2022-10-31T01:22:09;5.43;;;4.93;;
37383;SDS011;23258;49.718;11.082;2022-10-31T01:24:39;6.15;;;4.55;;
37383;SDS011;23258;49.718;11.082;2022-10-31T01:27:08;6.25;;;4.50;;
37383;SDS011;23258;49.718;11.082;2022-10-31T01:29:38;7.07;;;4.32;;
37383;SDS011;23258;49.718;11.082;2022-10-31T01:32:07;4.72;;;4.28;;
37383;SDS011;23258;49.718;11.082;2022-10-31T01:34:37;5.20;;;4.63;;
37383;SDS011;23258;49.718;11.082;2022-10-31T01:37:09;6.28;;;4.22;;
37383;SDS011;23258;49.718;11.082;2022-10-31T01:39:38;5.18;;;4.53;;
37383;SDS011;23258;49.718;11.082;2022-10-31T01:42:09;4.90;;;4.38;;
37383;SDS011;23258;49.718;11.082;2022-10-31T01:44:55;4.97;;;4.53;;
37383;SDS011;23258;49.718;11.082;2022-10-31T01:47:33;4.50;;;4.13;;
37383;SDS011;23258;49.718;11.082;2022-10-31T01:50:04;5.03;;;4.53;;
37383;SDS011;23258;49.718;11.082;2022-10-31T01:52:38;5.00;;;4.55;;
37383;SDS011;23258;49.718;11.082;2022-10-31T01:55:10;6.30;;;3.97;;
37383;SDS011;23258;49.718;11.082;2022-10-31T01:57:41;7.60;;;3.90;;
37383;SDS011;23258;49.718;11.082;2022-10-31T02:00:13;5.43;;;4.13;;
37383;SDS011;23258;49.718;11.082;2022-10-31T02:02:44;4.43;;;4.07;;
37383;SDS011;23258;49.718;11.082;2022-10-31T02:05:16;4.72;;;4.13;;
37383;SDS011;23258;49.718;11.082;2022-10-31T02:07:51;4.38;;;3.97;;
37383;SDS011;23258;49.718;11.082;2022-10-31T02:10:27;4.57;;;4.18;;
37383;SDS011;23258;49.718;11.082;2022-10-31T02:12:58;7.18;;;3.80;;
37383;SDS011;23258;49.718;11.082;2022-10-31T02:15:30;5.57;;;4.03;;
37383;SDS011;23258;49.718;11.082;2022-10-31T02:17:59;4.88;;;4.20;;
37383;SDS011;23258;49.718;11.082;2022-10-31T02:20:31;4.78;;;4.13;;
37383;SDS011;23258;49.718;11.082;2022-10-31T02:25:57;4.22;;;3.83;;
37383;SDS011;23258;49.718;11.082;2022-10-31T02:28:49;5.50;;;4.50;;
37383;SDS011;23258;49.718;11.082;2022-10-31T02:31:26;12.60;;;4.35;;
37383;SDS011;23258;49.718;11.082;2022-10-31T02:33:59;5.32;;;4.10;;
37383;SDS011;23258;49.718;11.082;2022-10-31T02:36:32;3.97;;;3.65;;
37383;SDS011;23258;49.718;11.082;2022-10-31T02:39:06;5.75;;;4.40;;
37383;SDS011;23258;49.718;11.082;2022-10-31T02:41:43;4.38;;;3.95;;
37383;SDS011;23258;49.718;11.082;2022-10-31T02:44:16;5.03;;;3.45;;
37383;SDS011;23258;49.718;11.082;2022-10-31T02:46:53;5.60;;;4.35;;
37383;SDS011;23258;49.718;11.082;2022-10-31T02:49:27;4.80;;;3.78;;
37383;SDS011;23258;49.718;11.082;2022-10-31T02:51:58;4.63;;;3.75;;
37383;SDS011;23258;49.718;11.082;2022-10-31T02:54:28;5.57;;;4.15;;
37383;SDS011;23258;49.718;11.082;2022-10-31T02:56:58;4.72;;;4.10;;
37383;SDS011;23258;49.718;11.082;2022-10-31T02:59:30;6.35;;;4.10;;
37383;SDS011;23258;49.718;11.082;2022-10-31T03:07:34;5.10;;;4.03;;
37383;SDS011;23258;49.718;11.082;2022-10-31T03:10:08;8.13;;;4.10;;
37383;SDS011;23258;49.718;11.082;2022-10-31T03:12:44;4.55;;;4.15;;
37383;SDS011;23258;49.718;11.082;2022-10-31T03:15:18;4.22;;;3.83;;
37383;SDS011;23258;49.718;11.082;2022-10-31T03:17:50;4.07;;;3.58;;
37383;SDS011;23258;49.718;11.082;2022-10-31T03:20:24;4.25;;;3.85;;
37383;SDS011;23258;49.718;11.082;2022-10-31T03:22:58;3.65;;;3.35;;
37383;SDS011;23258;49.718;11.082;2022-10-31T03:25:29;4.13;;;3.78;;
37383;SDS011;23258;49.718;11.082;2022-10-31T03:28:00;5.30;;;4.20;;
37383;SDS011;23258;49.718;11.082;2022-10-31T03:30:31;3.90;;;3.50;;
37383;SDS011;23258;49.718;11.082;2022-10-31T03:33:02;7.10;;;4.00;;
37383;SDS011;23258;49.718;11.082;2022-10-31T03:35:33;5.82;;;4.32;;
37383;SDS011;23258;49.718;11.082;2022-10-31T03:38:05;7.78;;;4.20;;
37383;SDS011;23258;49.718;11.082;2022-10-31T03:40:35;3.85;;;3.58;;
37383;SDS011;23258;49.718;11.082;2022-10-31T03:43:06;6.22;;;3.45;;
37383;SDS011;23258;49.718;11.082;2022-10-31T03:45:39;4.03;;;3.40;;
37383;SDS011;23258;49.718;11.082;2022-10-31T03:48:10;4.07;;;3.67;;
37383;SDS011;23258;49.718;11.082;2022-10-31T03:50:42;4.03;;;3.65;;
37383;SDS011;23258;49.718;11.082;2022-10-31T03:53:19;3.90;;;3.60;;
37383;SDS011;23258;49.718;11.082;2022-10-31T03:55:52;3.90;;;3.50;;
37383;SDS011;23258;49.718;11.082;2022-10-31T03:58:25;5.57;;;3.85;;
37383;SDS011;23258;49.718;11.082;2022-10-31T04:00:59;6.38;;;3.72;;
37383;SDS011;23258;49.718;11.082;2022-10-31T04:03:30;6.13;;;4.45;;
37383;SDS011;23258;49.718;11.082;2022-10-31T04:06:02;4.97;;;3.70;;
37383;SDS011;23258;49.718;11.082;2022-10-31T04:08:39;4.20;;;3.83;;
37383;SDS011;23258;49.718;11.082;2022-10-31T04:11:13;3.95;;;3.65;;
37383;SDS011;23258;49.718;11.082;2022-10-31T04:13:46;3.83;;;3.45;;
37383;SDS011;23258;49.718;11.082;2022-10-31T04:16:21;4.22;;;3.83;;
37383;SDS011;23258;49.718;11.082;2022-10-31T04:18:51;3.60;;;3.30;;
37383;SDS011;23258;49.718;11.082;2022-10-31T04:21:25;4.15;;;3.58;;
37383;SDS011;23258;49.718;11.082;2022-10-31T04:23:59;3.60;;;3.30;;
37383;SDS011;23258;49.718;11.082;2022-10-31T04:26:29;4.40;;;4.00;;
37383;SDS011;23258;49.718;11.082;2022-10-31T04:28:59;4.45;;;4.03;;
37383;SDS011;23258;49.718;11.082;2022-10-31T04:31:29;4.40;;;4.00;;
37383;SDS011;23258;49.718;11.082;2022-10-31T04:33:58;4.13;;;3.83;;
37383;SDS011;23258;49.718;11.082;2022-10-31T04:36:28;4.18;;;3.80;;
37383;SDS011;23258;49.718;11.082;2022-10-31T04:39:00;3.65;;;3.35;;
37383;SDS011;23258;49.718;11.082;2022-10-31T04:41:45;3.90;;;3.50;;
37383;SDS011;23258;49.718;11.082;2022-10-31T04:46:47;4.05;;;3.53;;
37383;SDS011;23258;49.718;11.082;2022-10-31T04:49:17;3.88;;;3.50;;
37383;SDS011;23258;49.718;11.082;2022-10-31T04:51:46;3.92;;;3.63;;
37383;SDS011;23258;49.718;11.082;2022-10-31T04:54:20;4.80;;;3.67;;
37383;SDS011;23258;49.718;11.082;2022-10-31T04:57:24;5.18;;;3.85;;
37383;SDS011;23258;49.718;11.082;2022-10-31T04:59:54;3.65;;;3.33;;
37383;SDS011;23258;49.718;11.082;2022-10-31T05:02:24;3.50;;;3.20;;
37383;SDS011;23258;49.718;11.082;2022-10-31T05:04:56;4.95;;;3.17;;
37383;SDS011;23258;49.718;11.082;2022-10-31T05:07:25;5.22;;;3.83;;
37383;SDS011;23258;49.718;11.082;2022-10-31T05:09:57;3.42;;;3.13;;
37383;SDS011;23258;49.718;11.082;2022-10-31T05:12:28;3.45;;;3.08;;
37383;SDS011;23258;49.718;11.082;2022-10-31T05:15:07;4.13;;;3.53;;
37383;SDS011;23258;49.718;11.082;2022-10-31T05:17:55;3.67;;;3.38;;
37383;SDS011;23258;49.718;11.082;2022-10-31T05:20:48;4.00;;;3.60;;
37383;SDS011;23258;49.718;11.082;2022-10-31T05:23:24;4.15;;;3.75;;
37383;SDS011;23258;49.718;11.082;2022-10-31T05:25:56;5.63;;;3.47;;
37383;SDS011;23258;49.718;11.082;2022-10-31T05:28:26;3.60;;;3.33;;
37383;SDS011;23258;49.718;11.082;2022-10-31T05:30:56;5.65;;;3.50;;
37383;SDS011;23258;49.718;11.082;2022-10-31T05:33:25;4.43;;;3.63;;
37383;SDS011;23258;49.718;11.082;2022-10-31T05:36:13;3.63;;;3.33;;
37383;SDS011;23258;49.718;11.082;2022-10-31T05:38:56;4.13;;;3.75;;
37383;SDS011;23258;49.718;11.082;2022-10-31T05:41:36;5.25;;;4.32;;
37383;SDS011;23258;49.718;11.082;2022-10-31T05:44:15;3.85;;;3.35;;
37383;SDS011;23258;49.718;11.082;2022-10-31T05:47:07;4.22;;;3.55;;
37383;SDS011;23258;49.718;11.082;2022-10-31T05:49:55;3.85;;;3.55;;
37383;SDS011;23258;49.718;11.082;2022-10-31T05:52:44;4.97;;;4.22;;
37383;SDS011;23258;49.718;11.082;2022-10-31T05:55:34;3.83;;;3.63;;
37383;SDS011;23258;49.718;11.082;2022-10-31T05:58:11;4.13;;;3.75;;
37383;SDS011;23258;49.718;11.082;2022-10-31T06:00:48;4.07;;;3.78;;
37383;SDS011;23258;49.718;11.082;2022-10-31T06:03:18;3.63;;;3.33;;
37383;SDS011;23258;49.718;11.082;2022-10-31T06:05:55;5.72;;;3.88;;
37383;SDS011;23258;49.718;11.082;2022-10-31T06:08:35;6.00;;;3.65;;
37383;SDS011;23258;49.718;11.082;2022-10-31T06:11:09;3.72;;;3.47;;
37383;SDS011;23258;49.718;11.082;2022-10-31T06:14:11;4.55;;;3.83;;
37383;SDS011;23258;49.718;11.082;2022-10-31T06:16:53;4.65;;;4.13;;
37383;SDS011;23258;49.718;11.082;2022-10-31T06:19:49;3.70;;;3.38;;
37383;SDS011;23258;49.718;11.082;2022-10-31T06:22:21;5.65;;;4.38;;
37383;SDS011;23258;49.718;11.082;2022-10-31T06:24:50;4.10;;;3.80;;
37383;SDS011;23258;49.718;11.082;2022-10-31T06:27:33;4.05;;;3.58;;
37383;SDS011;23258;49.718;11.082;2022-10-31T06:30:12;4.95;;;4.45;;
37383;SDS011;23258;49.718;11.082;2022-10-31T06:32:44;5.35;;;4.85;;
37383;SDS011;23258;49.718;11.082;2022-10-31T06:35:13;4.97;;;4.45;;
37383;SDS011;23258;49.718;11.082;2022-10-31T06:37:50;6.95;;;4.95;;
37383;SDS011;23258;49.718;11.082;2022-10-31T06:40:31;4.70;;;4.18;;
37383;SDS011;23258;49.718;11.082;2022-10-31T06:43:19;5.03;;;4.47;;
37383;SDS011;23258;49.718;11.082;2022-10-31T06:46:01;4.93;;;4.45;;
37383;SDS011;23258;49.718;11.082;2022-10-31T06:48:34;4.20;;;3.90;;
37383;SDS011;23258;49.718;11.082;2022-10-31T06:51:32;4.10;;;3.70;;
37383;SDS011;23258;49.718;11.082;2022-10-31T06:54:02;3.80;;;3.47;;
37383;SDS011;23258;49.718;11.082;2022-10-31T06:56:31;7.32;;;3.80;;
37383;SDS011;23258;49.718;11.082;2022-10-31T06:59:02;3.45;;;3.25;;
37383;SDS011;23258;49.718;11.082;2022-10-31T07:01:54;4.35;;;3.83;;
37383;SDS011;23258;49.718;11.082;2022-10-31T07:04:25;4.20;;;3.80;;
37383;SDS011;23258;49.718;11.082;2022-10-31T07:06:55;5.28;;;4.15;;
37383;SDS011;23258;49.718;11.082;2022-10-31T07:09:24;4.32;;;3.92;;
37383;SDS011;23258;49.718;11.082;2022-10-31T07:11:56;4.28;;;3.75;;
37383;SDS011;23258;49.718;11.082;2022-10-31T07:14:28;5.07;;;3.60;;
37383;SDS011;23258;49.718;11.082;2022-10-31T07:17:00;4.13;;;3.72;;
37383;SDS011;23258;49.718;11.082;2022-10-31T07:19:39;4.93;;;4.47;;
37383;SDS011;23258;49.718;11.082;2022-10-31T07:22:10;5.25;;;4.65;;
37383;SDS011;23258;49.718;11.082;2022-10-31T07:24:42;5.07;;;4.68;;
37383;SDS011;23258;49.718;11.082;2022-10-31T07:27:50;5.57;;;5.07;;
37383;SDS011;23258;49.718;11.082;2022-10-31T07:30:20;7.40;;;5.82;;
37383;SDS011;23258;49.718;11.082;2022-10-31T07:32:56;7.57;;;5.30;;
37383;SDS011;23258;49.718;11.082;2022-10-31T07:35:46;5.70;;;5.20;;
37383;SDS011;23258;49.718;11.082;2022-10-31T07:38:20;5.65;;;4.32;;
37383;SDS011;23258;49.718;11.082;2022-10-31T07:40:50;5.50;;;5.00;;
37383;SDS011;23258;49.718;11.082;2022-10-31T07:43:22;6.28;;;4.60;;
37383;SDS011;23258;49.718;11.082;2022-10-31T07:46:17;6.20;;;4.72;;
37383;SDS011;23258;49.718;11.082;2022-10-31T07:49:08;5.10;;;4.60;;
37383;SDS011;23258;49.718;11.082;2022-10-31T07:51:56;5.57;;;4.22;;
37383;SDS011;23258;49.718;11.082;2022-10-31T07:54:38;7.40;;;4.63;;
37383;SDS011;23258;49.718;11.082;2022-10-31T07:57:08;6.43;;;5.82;;
37383;SDS011;23258;49.718;11.082;2022-10-31T07:59:38;6.45;;;5.32;;
37383;SDS011;23258;49.718;11.082;2022-10-31T08:02:07;6.50;;;5.80;;
37383;SDS011;23258;49.718;11.082;2022-10-31T08:04:48;7.32;;;4.93;;
37383;SDS011;23258;49.718;11.082;2022-10-31T08:07:59;5.30;;;4.80;;
37383;SDS011;23258;49.718;11.082;2022-10-31T08:10:29;7.18;;;5.20;;
37383;SDS011;23258;49.718;11.082;2022-10-31T08:13:00;6.38;;;5.78;;
37383;SDS011;23258;49.718;11.082;2022-10-31T08:15:30;8.40;;;5.75;;
37383;SDS011;23258;49.718;11.082;2022-10-31T08:18:03;5.28;;;4.88;;
37383;SDS011;23258;49.718;11.082;2022-10-31T08:20:35;5.63;;;5.15;;
37383;SDS011;23258;49.718;11.082;2022-10-31T08:23:05;5.72;;;5.10;;
37383;SDS011;23258;49.718;11.082;2022-10-31T08:25:35;5.65;;;4.97;;
37383;SDS011;23258;49.718;11.082;2022-10-31T08:28:05;6.53;;;5.63;;
37383;SDS011;23258;49.718;11.082;2022-10-31T08:30:35;6.22;;;5.63;;
37383;SDS011;23258;49.718;11.082;2022-10-31T08:33:24;5.43;;;5.00;;
37383;SDS011;23258;49.718;11.082;2022-10-31T08:36:15;5.28;;;4.78;;
37383;SDS011;23258;49.718;11.082;2022-10-31T08:39:00;4.93;;;4.53;;
37383;SDS011;23258;49.718;11.082;2022-10-31T08:41:30;4.57;;;4.22;;
37383;SDS011;23258;49.718;11.082;2022-10-31T08:44:00;7.90;;;5.20;;
37383;SDS011;23258;49.718;11.082;2022-10-31T08:46:30;6.10;;;5.13;;
37383;SDS011;23258;49.718;11.082;2022-10-31T08:49:01;5.88;;;5.32;;
37383;SDS011;23258;49.718;11.082;2022-10-31T08:51:33;7.55;;;6.63;;
37383;SDS011;23258;49.718;11.082;2022-10-31T08:54:02;7.40;;;6.68;;
37383;SDS011;23258;49.718;11.082;2022-10-31T08:56:32;6.97;;;5.68;;
37383;SDS011;23258;49.718;11.082;2022-10-31T08:59:08;7.03;;;6.32;;
37383;SDS011;23258;49.718;11.082;2022-10-31T09:02:04;6.90;;;5.45;;
37383;SDS011;23258;49.718;11.082;2022-10-31T09:04:34;7.65;;;6.85;;
37383;SDS011;23258;49.718;11.082;2022-10-31T09:07:06;10.35;;;7.15;;
37383;SDS011;23258;49.718;11.082;2022-10-31T09:09:53;9.23;;;7.65;;
37383;SDS011;23258;49.718;11.082;2022-10-31T09:12:23;10.95;;;8.35;;
37383;SDS011;23258;49.718;11.082;2022-10-31T09:15:11;11.48;;;9.43;;
37383;SDS011;23258;49.718;11.082;2022-10-31T09:18:08;11.05;;;9.88;;
37383;SDS011;23258;49.718;11.082;2022-10-31T09:20:48;9.57;;;8.23;;
37383;SDS011;23258;49.718;11.082;2022-10-31T09:23:21;9.80;;;8.60;;
37383;SDS011;23258;49.718;11.082;2022-10-31T09:25:52;10.75;;;8.27;;
37383;SDS011;23258;49.718;11.082;2022-10-31T09:28:44;9.95;;;8.95;;
37383;SDS011;23258;49.718;11.082;2022-10-31T09:31:16;11.57;;;9.07;;
37383;SDS011;23258;49.718;11.082;2022-10-31T09:33:54;12.70;;;8.70;;
37383;SDS011;23258;49.718;11.082;2022-10-31T09:36:44;8.77;;;7.35;;
37383;SDS011;23258;49.718;11.082;2022-10-31T09:39:21;10.40;;;8.25;;
37383;SDS011;23258;49.718;11.082;2022-10-31T09:42:06;14.18;;;8.82;;
37383;SDS011;23258;49.718;11.082;2022-10-31T09:44:42;13.38;;;9.07;;
37383;SDS011;23258;49.718;11.082;2022-10-31T09:47:24;12.07;;;8.45;;
37383;SDS011;23258;49.718;11.082;2022-10-31T09:50:18;10.05;;;8.70;;
37383;SDS011;23258;49.718;11.082;2022-10-31T09:52:51;10.88;;;9.30;;
37383;SDS011;23258;49.718;11.082;2022-10-31T09:55:27;10.65;;;9.25;;
37383;SDS011;23258;49.718;11.082;2022-10-31T09:57:59;13.20;;;8.18;;
37383;SDS011;23258;49.718;11.082;2022-10-31T10:00:29;15.85;;;9.90;;
37383;SDS011;23258;49.718;11.082;2022-10-31T10:03:02;8.68;;;7.68;;
37383;SDS011;23258;49.718;11.082;2022-10-31T10:05:36;9.02;;;7.78;;
37383;SDS011;23258;49.718;11.082;2022-10-31T10:08:11;9.80;;;7.88;;
37383;SDS011;23258;49.718;11.082;2022-10-31T10:11:17;9.63;;;7.30;;
37383;SDS011;23258;49.718;11.082;2022-10-31T10:16:51;7.95;;;7.18;;
37383;SDS011;23258;49.718;11.082;2022-10-31T10:19:28;10.90;;;7.03;;
37383;SDS011;23258;49.718;11.082;2022-10-31T10:22:02;8.05;;;6.45;;
37383;SDS011;23258;49.718;11.082;2022-10-31T10:24:39;8.23;;;6.65;;
37383;SDS011;23258;49.718;11.082;2022-10-31T10:27:16;7.05;;;5.30;;
37383;SDS011;23258;49.718;11.082;2022-10-31T10:29:50;7.68;;;6.88;;
37383;SDS011;23258;49.718;11.082;2022-10-31T10:32:21;12.10;;;7.05;;
37383;SDS011;23258;49.718;11.082;2022-10-31T10:34:52;10.32;;;7.00;;
37383;SDS011;23258;49.718;11.082;2022-10-31T10:37:24;8.45;;;7.10;;
37383;SDS011;23258;49.718;11.082;2022-10-31T10:39:56;8.50;;;7.47;;
37383;SDS011;23258;49.718;11.082;2022-10-31T10:42:33;9.82;;;7.40;;
37383;SDS011;23258;49.718;11.082;2022-10-31T10:45:17;9.48;;;7.75;;
37383;SDS011;23258;49.718;11.082;2022-10-31T10:48:02;10.85;;;8.20;;
37383;SDS011;23258;49.718;11.082;2022-10-31T10:50:35;12.05;;;8.70;;
37383;SDS011;23258;49.718;11.082;2022-10-31T10:53:09;8.40;;;7.25;;
37383;SDS011;23258;49.718;11.082;2022-10-31T10:55:49;9.35;;;7.40;;
37383;SDS011;23258;49.718;11.082;2022-10-31T10:58:23;8.82;;;7.18;;
37383;SDS011;23258;49.718;11.082;2022-10-31T11:00:53;10.52;;;8.35;;
37383;SDS011;23258;49.718;11.082;2022-10-31T11:03:24;10.05;;;8.13;;
37383;SDS011;23258;49.718;11.082;2022-10-31T11:05:54;11.38;;;7.25;;
37383;SDS011;23258;49.718;11.082;2022-10-31T11:08:25;11.02;;;8.73;;
37383;SDS011;23258;49.718;11.082;2022-10-31T11:11:04;10.18;;;7.55;;
37383;SDS011;23258;49.718;11.082;2022-10-31T11:13:36;7.90;;;6.95;;
37383;SDS011;23258;49.718;11.082;2022-10-31T11:16:07;9.05;;;7.90;;
37383;SDS011;23258;49.718;11.082;2022-10-31T11:18:39;7.43;;;6.60;;
37383;SDS011;23258;49.718;11.082;2022-10-31T11:21:19;9.43;;;7.63;;
37383;SDS011;23258;49.718;11.082;2022-10-31T11:23:49;7.55;;;6.53;;
37383;SDS011;23258;49.718;11.082;2022-10-31T11:26:19;8.20;;;6.78;;
37383;SDS011;23258;49.718;11.082;2022-10-31T11:28:58;9.70;;;6.82;;
37383;SDS011;23258;49.718;11.082;2022-10-31T11:31:29;8.77;;;6.65;;
37383;SDS011;23258;49.718;11.082;2022-10-31T11:33:59;8.75;;;6.60;;
37383;SDS011;23258;49.718;11.082;2022-10-31T11:36:30;7.22;;;6.38;;
37383;SDS011;23258;49.718;11.082;2022-10-31T11:39:00;5.93;;;5.45;;
37383;SDS011;23258;49.718;11.082;2022-10-31T11:41:31;6.45;;;5.85;;
37383;SDS011;23258;49.718;11.082;2022-10-31T11:44:11;5.60;;;5.05;;
37383;SDS011;23258;49.718;11.082;2022-10-31T11:46:42;6.40;;;5.47;;
37383;SDS011;23258;49.718;11.082;2022-10-31T11:49:14;9.15;;;6.07;;
37383;SDS011;23258;49.718;11.082;2022-10-31T11:51:46;9.20;;;5.70;;
37383;SDS011;23258;49.718;11.082;2022-10-31T11:54:20;7.05;;;4.95;;
37383;SDS011;23258;49.718;11.082;2022-10-31T11:56:51;6.25;;;5.40;;
37383;SDS011;23258;49.718;11.082;2022-10-31T11:59:25;6.88;;;5.35;;
37383;SDS011;23258;49.718;11.082;2022-10-31T12:01:55;5.72;;;5.15;;
37383;SDS011;23258;49.718;11.082;2022-10-31T12:04:29;6.93;;;5.22;;
37383;SDS011;23258;49.718;11.082;2022-10-31T12:07:00;5.45;;;4.53;;
37383;SDS011;23258;49.718;11.082;2022-10-31T12:09:30;6.57;;;4.55;;
37383;SDS011;23258;49.718;11.082;2022-10-31T12:12:09;5.43;;;4.40;;
37383;SDS011;23258;49.718;11.082;2022-10-31T12:14:44;5.53;;;5.00;;
37383;SDS011;23258;49.718;11.082;2022-10-31T12:17:16;4.45;;;4.05;;
37383;SDS011;23258;49.718;11.082;2022-10-31T12:19:54;9.70;;;5.00;;
37383;SDS011;23258;49.718;11.082;2022-10-31T12:22:28;5.18;;;4.75;;
37383;SDS011;23258;49.718;11.082;2022-10-31T12:25:03;5.05;;;4.60;;
37383;SDS011;23258;49.718;11.082;2022-10-31T12:27:44;5.43;;;4.93;;
37383;SDS011;23258;49.718;11.082;2022-10-31T12:30:20;4.95;;;4.60;;
37383;SDS011;23258;49.718;11.082;2022-10-31T12:32:57;4.85;;;4.35;;
37383;SDS011;23258;49.718;11.082;2022-10-31T12:35:40;5.40;;;4.53;;
37383;SDS011;23258;49.718;11.082;2022-10-31T12:38:20;5.28;;;4.68;;
37383;SDS011;23258;49.718;11.082;2022-10-31T12:40:57;6.63;;;4.57;;
37383;SDS011;23258;49.718;11.082;2022-10-31T12:43:34;5.30;;;4.85;;
37383;SDS011;23258;49.718;11.082;2022-10-31T12:46:09;7.72;;;4.65;;
37383;SDS011;23258;49.718;11.082;2022-10-31T12:48:50;5.00;;;4.32;;
37383;SDS011;23258;49.718;11.082;2022-10-31T12:51:25;5.25;;;4.75;;
37383;SDS011;23258;49.718;11.082;2022-10-31T12:54:04;6.57;;;4.60;;
37383;SDS011;23258;49.718;11.082;2022-10-31T12:56:41;5.00;;;4.50;;
37383;SDS011;23258;49.718;11.082;2022-10-31T12:59:16;4.57;;;4.18;;
37383;SDS011;23258;49.718;11.082;2022-10-31T13:01:50;5.28;;;4.78;;
37383;SDS011;23258;49.718;11.082;2022-10-31T13:04:24;5.07;;;4.05;;
37383;SDS011;23258;49.718;11.082;2022-10-31T13:07:00;4.43;;;4.07;;
37383;SDS011;23258;49.718;11.082;2022-10-31T13:09:35;4.38;;;4.00;;
37383;SDS011;23258;49.718;11.082;2022-10-31T13:12:07;5.32;;;4.72;;
37383;SDS011;23258;49.718;11.082;2022-10-31T13:14:38;5.28;;;4.35;;
37383;SDS011;23258;49.718;11.082;2022-10-31T13:17:13;5.82;;;4.82;;
37383;SDS011;23258;49.718;11.082;2022-10-31T13:19:46;7.82;;;5.07;;
37383;SDS011;23258;49.718;11.082;2022-10-31T13:22:17;6.30;;;5.20;;
37383;SDS011;23258;49.718;11.082;2022-10-31T13:24:50;5.50;;;5.00;;
37383;SDS011;23258;49.718;11.082;2022-10-31T13:27:22;6.38;;;5.45;;
37383;SDS011;23258;49.718;11.082;2022-10-31T13:29:56;8.02;;;5.15;;
37383;SDS011;23258;49.718;11.082;2022-10-31T13:32:36;6.10;;;4.55;;
37383;SDS011;23258;49.718;11.082;2022-10-31T13:35:08;5.88;;;5.10;;
37383;SDS011;23258;49.718;11.082;2022-10-31T13:37:43;4.90;;;4.50;;
37383;SDS011;23258;49.718;11.082;2022-10-31T13:40:21;4.97;;;4.53;;
37383;SDS011;23258;49.718;11.082;2022-10-31T13:42:55;4.75;;;4.35;;
37383;SDS011;23258;49.718;11.082;2022-10-31T13:45:27;4.75;;;4.45;;
37383;SDS011;23258;49.718;11.082;2022-10-31T13:48:00;5.82;;;5.25;;
37383;SDS011;23258;49.718;11.082;2022-10-31T13:50:30;5.53;;;5.03;;
37383;SDS011;23258;49.718;11.082;2022-10-31T13:53:09;5.30;;;4.80;;
37383;SDS011;23258;49.718;11.082;2022-10-31T13:55:40;5.60;;;5.10;;
37383;SDS011;23258;49.718;11.082;2022-10-31T13:58:21;5.20;;;4.70;;
37383;SDS011;23258;49.718;11.082;2022-10-31T14:00:58;5.65;;;4.72;;
37383;SDS011;23258;49.718;11.082;2022-10-31T14:03:30;6.95;;;5.50;;
37383;SDS011;23258;49.718;11.082;2022-10-31T14:06:22;5.28;;;4.75;;
37383;SDS011;23258;49.718;11.082;2022-10-31T14:08:52;6.47;;;5.88;;
37383;SDS011;23258;49.718;11.082;2022-10-31T14:11:22;5.47;;;4.97;;
37383;SDS011;23258;49.718;11.082;2022-10-31T14:14:01;5.80;;;5.22;;
37383;SDS011;23258;49.718;11.082;2022-10-31T14:16:31;5.15;;;4.75;;
37383;SDS011;23258;49.718;11.082;2022-10-31T14:19:07;6.22;;;4.82;;
37383;SDS011;23258;49.718;11.082;2022-10-31T14:21:38;5.78;;;5.28;;
37383;SDS011;23258;49.718;11.082;2022-10-31T14:24:13;5.38;;;4.88;;
37383;SDS011;23258;49.718;11.082;2022-10-31T14:26:52;8.20;;;5.28;;
37383;SDS011;23258;49.718;11.082;2022-10-31T14:29:23;6.28;;;5.63;;
37383;SDS011;23258;49.718;11.082;2022-10-31T14:31:54;6.13;;;5.50;;
37383;SDS011;23258;49.718;11.082;2022-10-31T14:34:28;6.30;;;5.18;;
37383;SDS011;23258;49.718;11.082;2022-10-31T14:37:04;6.75;;;5.10;;
37383;SDS011;23258;49.718;11.082;2022-10-31T14:39:38;5.25;;;4.75;;
37383;SDS011;23258;49.718;11.082;2022-10-31T14:42:14;5.22;;;4.72;;
37383;SDS011;23258;49.718;11.082;2022-10-31T14:47:45;5.03;;;4.57;;
37383;SDS011;23258;49.718;11.082;2022-10-31T14:50:23;9.20;;;4.97;;
37383;SDS011;23258;49.718;11.082;2022-10-31T14:52:54;5.32;;;4.57;;
37383;SDS011;23258;49.718;11.082;2022-10-31T14:55:25;5.30;;;4.85;;
37383;SDS011;23258;49.718;11.082;2022-10-31T14:57:57;5.60;;;4.95;;
37383;SDS011;23258;49.718;11.082;2022-10-31T15:00:27;4.82;;;4.43;;
37383;SDS011;23258;49.718;11.082;2022-10-31T15:03:01;5.10;;;4.60;;
37383;SDS011;23258;49.718;11.082;2022-10-31T15:05:41;5.10;;;4.68;;
37383;SDS011;23258;49.718;11.082;2022-10-31T15:08:13;4.93;;;4.53;;
37383;SDS011;23258;49.718;11.082;2022-10-31T15:10:44;5.05;;;4.55;;
37383;SDS011;23258;49.718;11.082;2022-10-31T15:13:17;4.88;;;4.47;;
37383;SDS011;23258;49.718;11.082;2022-10-31T15:15:48;5.82;;;4.30;;
37383;SDS011;23258;49.718;11.082;2022-10-31T15:18:24;5.18;;;4.43;;
37383;SDS011;23258;49.718;11.082;2022-10-31T15:20:57;8.02;;;4.75;;
37383;SDS011;23258;49.718;11.082;2022-10-31T15:23:28;5.20;;;4.63;;
37383;SDS011;23258;49.718;11.082;2022-10-31T15:25:58;6.35;;;4.97;;
37383;SDS011;23258;49.718;11.082;2022-10-31T15:28:28;8.20;;;5.25;;
37383;SDS011;23258;49.718;11.082;2022-10-31T15:30:59;5.28;;;4.72;;
37383;SDS011;23258;49.718;11.082;2022-10-31T15:33:29;5.93;;;4.93;;
37383;SDS011;23258;49.718;11.082;2022-10-31T15:36:16;4.57;;;4.13;;